Time;durP1;ratioP1;P1;durP2;ratioP2;P2;SDS_P1;SDS_P2;PMS_P1;PMS_P2;Temp;Humidity;BMP_temperature;BMP_pressure;BME280_temperature;BME280_humidity;BME280_pressure;Samples;Min_cycle;Max_cycle;Signal;HPM_P1;HPM_P2
2021/04/20 00:01:45;;;;;;;18.83;12.27;;;8.00;99.00;;;;;;5106060;28;20082;-89
2021/04/20 00:04:12;;;;;;;19.38;12.77;;;8.00;98.90;;;;;;5091108;28;20060;-86
2021/04/20 00:06:39;;;;;;;20.35;12.90;;;8.00;98.70;;;;;;5110030;28;20078;-87
2021/04/20 00:09:08;;;;;;;19.00;11.88;;;7.90;98.30;;;;;;5098071;28;20490;-85
2021/04/20 00:11:36;;;;;;;19.00;11.70;;;7.90;98.00;;;;;;5074229;28;20124;-89
2021/04/20 00:14:04;;;;;;;20.33;13.30;;;7.70;98.20;;;;;;5080252;28;20048;-88
2021/04/20 00:16:31;;;;;;;19.85;12.73;;;7.70;98.50;;;;;;5086739;28;20090;-86
2021/04/20 00:18:58;;;;;;;21.60;13.68;;;7.70;98.60;;;;;;5095998;28;20138;-85
2021/04/20 00:21:25;;;;;;;19.33;12.48;;;7.80;98.30;;;;;;5086028;28;20476;-88
2021/04/20 00:23:52;;;;;;;18.83;11.90;;;7.70;97.90;;;;;;5080663;28;20040;-87
2021/04/20 00:26:18;;;;;;;18.65;12.10;;;7.60;98.00;;;;;;5096672;28;20066;-87
2021/04/20 00:28:45;;;;;;;18.35;11.40;;;7.50;98.40;;;;;;5101306;28;20517;-87
2021/04/20 00:31:12;;;;;;;20.02;11.75;;;7.50;98.30;;;;;;5097231;28;20083;-87
2021/04/20 00:33:40;;;;;;;19.17;11.20;;;7.40;98.20;;;;;;5088566;28;20044;-87
2021/04/20 00:36:09;;;;;;;18.63;11.50;;;7.40;98.20;;;;;;5118657;28;20051;-86
2021/04/20 00:38:36;;;;;;;18.20;11.32;;;7.30;98.40;;;;;;5101320;28;20051;-86
2021/04/20 00:41:05;;;;;;;17.70;11.07;;;7.20;98.40;;;;;;5095363;28;20063;-86
2021/04/20 00:43:38;;;;;;;15.80;10.05;;;7.30;98.20;;;;;;5104324;28;20486;-87
2021/04/20 00:46:07;;;;;;;17.33;10.52;;;7.30;98.50;;;;;;5088321;28;20067;-86
2021/04/20 00:48:34;;;;;;;17.83;11.23;;;7.20;98.70;;;;;;5057219;28;20139;-86
2021/04/20 00:51:01;;;;;;;18.40;10.98;;;7.30;98.60;;;;;;5075490;28;20454;-89
2021/04/20 00:53:29;;;;;;;17.88;11.40;;;7.10;98.60;;;;;;5089175;28;20480;-87
2021/04/20 00:55:56;;;;;;;17.88;11.93;;;7.20;98.40;;;;;;5086999;28;20068;-86
2021/04/20 00:58:22;;;;;;;18.00;11.52;;;7.20;98.20;;;;;;5069557;28;20135;-85
2021/04/20 01:00:51;;;;;;;16.38;11.18;;;7.20;98.10;;;;;;5072723;28;20062;-85
2021/04/20 01:03:18;;;;;;;18.30;11.05;;;7.20;98.00;;;;;;5056435;28;20060;-87
2021/04/20 01:05:45;;;;;;;19.95;11.27;;;7.00;98.10;;;;;;5073840;28;20102;-88
2021/04/20 01:08:16;;;;;;;18.15;10.85;;;6.90;98.20;;;;;;5056484;28;20087;-87
2021/04/20 01:10:46;;;;;;;17.95;11.13;;;7.00;98.50;;;;;;5052393;28;20127;-87
2021/04/20 01:13:14;;;;;;;19.08;10.95;;;7.00;98.40;;;;;;5076699;28;20044;-85
2021/04/20 01:15:44;;;;;;;19.60;11.40;;;7.00;98.60;;;;;;5062360;28;20507;-88
2021/04/20 01:18:13;;;;;;;17.70;11.32;;;6.90;98.60;;;;;;5046344;28;20048;-88
2021/04/20 01:20:42;;;;;;;16.90;10.25;;;7.00;98.00;;;;;;5084454;28;20075;-89
2021/04/20 01:23:47;;;;;;;19.15;11.23;;;6.90;97.80;;;;;;5105011;28;20048;-88
2021/04/20 01:26:15;;;;;;;17.02;10.70;;;6.80;98.20;;;;;;5103573;28;20079;-88
2021/04/20 01:28:44;;;;;;;17.88;11.05;;;6.80;98.50;;;;;;5080714;28;20557;-87
2021/04/20 01:31:13;;;;;;;18.42;11.30;;;6.70;98.70;;;;;;5078126;28;20112;-87
2021/04/20 01:33:41;;;;;;;20.17;11.50;;;6.70;98.90;;;;;;5095027;28;20075;-87
2021/04/20 01:36:10;;;;;;;17.38;11.48;;;6.70;98.80;;;;;;5095222;28;20509;-87
2021/04/20 01:38:37;;;;;;;17.00;11.25;;;6.70;98.30;;;;;;5080330;28;20494;-88
2021/04/20 01:41:03;;;;;;;16.92;10.68;;;6.80;98.00;;;;;;5094173;28;20531;-88
2021/04/20 01:43:32;;;;;;;19.13;11.57;;;6.70;97.90;;;;;;5071823;28;20501;-90
2021/04/20 01:45:58;;;;;;;16.98;10.38;;;6.60;98.00;;;;;;5062745;28;20132;-88
2021/04/20 01:48:25;;;;;;;18.52;11.40;;;6.50;98.30;;;;;;5088026;28;20548;-88
2021/04/20 01:50:53;;;;;;;18.83;11.18;;;6.50;98.40;;;;;;5060220;28;20119;-88
2021/04/20 01:53:19;;;;;;;19.77;11.80;;;6.50;98.50;;;;;;5090938;28;20068;-88
2021/04/20 01:55:47;;;;;;;19.73;11.98;;;6.50;98.40;;;;;;5041638;28;20168;-88
2021/04/20 01:58:15;;;;;;;19.77;12.15;;;6.30;98.40;;;;;;5086822;28;20139;-87
2021/04/20 02:00:43;;;;;;;17.80;11.00;;;6.40;98.80;;;;;;5095044;28;20079;-86
2021/04/20 02:03:10;;;;;;;18.70;11.52;;;6.20;99.00;;;;;;5075558;28;20072;-87
2021/04/20 02:05:38;;;;;;;19.48;11.82;;;6.30;99.30;;;;;;5082314;28;20147;-88
2021/04/20 02:08:05;;;;;;;19.55;11.65;;;6.40;99.20;;;;;;5094988;28;20075;-89
2021/04/20 02:10:33;;;;;;;19.70;11.70;;;6.30;99.20;;;;;;5085548;28;20048;-87
2021/04/20 02:12:59;;;;;;;19.50;11.70;;;6.40;99.30;;;;;;5091100;28;20130;-86
2021/04/20 02:15:26;;;;;;;20.08;12.65;;;6.40;99.20;;;;;;5095273;28;20134;-86
2021/04/20 02:17:54;;;;;;;18.75;11.43;;;6.40;99.20;;;;;;5056520;28;20125;-87
2021/04/20 02:20:22;;;;;;;19.02;10.88;;;6.50;98.90;;;;;;5087866;28;20592;-87
2021/04/20 02:22:50;;;;;;;18.35;11.10;;;6.50;99.00;;;;;;5094408;28;20549;-87
2021/04/20 02:25:19;;;;;;;23.13;12.93;;;6.40;99.00;;;;;;5075200;28;20098;-87
2021/04/20 02:27:48;;;;;;;18.25;10.85;;;6.50;98.90;;;;;;5082534;28;20040;-87
2021/04/20 02:30:17;;;;;;;18.83;11.35;;;6.50;98.90;;;;;;5064643;28;20387;-85
2021/04/20 02:32:44;;;;;;;16.23;10.05;;;6.50;98.70;;;;;;5070157;28;20072;-86
2021/04/20 02:35:15;;;;;;;21.15;11.85;;;6.40;98.50;;;;;;5060479;28;20076;-88
2021/04/20 02:37:44;;;;;;;19.33;11.13;;;6.40;98.70;;;;;;5092927;28;20121;-88
2021/04/20 02:40:18;;;;;;;17.85;11.25;;;6.40;98.70;;;;;;5064825;28;20052;-87
2021/04/20 02:42:45;;;;;;;18.77;11.55;;;6.40;98.60;;;;;;5090985;28;20136;-87
2021/04/20 02:45:12;;;;;;;17.33;11.30;;;6.40;98.80;;;;;;5090522;28;20076;-87
2021/04/20 02:47:39;;;;;;;17.67;11.20;;;6.40;98.90;;;;;;5074440;28;20072;-85
2021/04/20 02:50:11;;;;;;;18.75;11.10;;;6.40;98.50;;;;;;5084761;28;20128;-87
2021/04/20 02:52:40;;;;;;;18.60;11.68;;;6.20;98.10;;;;;;5083223;28;20068;-86
2021/04/20 02:55:11;;;;;;;19.77;11.68;;;6.20;98.40;;;;;;5086688;28;20524;-87
2021/04/20 02:57:43;;;;;;;18.85;11.05;;;6.10;98.70;;;;;;5083127;28;20414;-86
2021/04/20 03:00:14;;;;;;;19.27;11.90;;;6.10;98.70;;;;;;5096296;28;20478;-87
2021/04/20 03:02:43;;;;;;;20.98;12.30;;;6.00;98.70;;;;;;5086196;28;20470;-87
2021/04/20 03:05:14;;;;;;;19.27;11.60;;;5.90;98.80;;;;;;5081391;28;20040;-87
2021/04/20 03:07:42;;;;;;;19.85;11.95;;;5.80;99.10;;;;;;5078917;28;20076;-86
2021/04/20 03:10:11;;;;;;;18.42;11.38;;;5.80;99.20;;;;;;5073675;28;20054;-87
2021/04/20 03:12:39;;;;;;;20.50;11.27;;;5.70;99.60;;;;;;5089194;28;20070;-87
2021/04/20 03:15:09;;;;;;;19.48;11.38;;;5.70;99.90;;;;;;5081332;28;20045;-88
2021/04/20 03:17:36;;;;;;;18.45;11.85;;;5.70;99.90;;;;;;5076807;28;20070;-87
2021/04/20 03:20:04;;;;;;;19.73;11.77;;;5.80;99.90;;;;;;5089803;28;20047;-89
2021/04/20 03:22:31;;;;;;;18.90;11.70;;;5.80;99.50;;;;;;5079582;28;20052;-88
2021/04/20 03:25:17;;;;;;;20.35;12.30;;;5.70;99.60;;;;;;5099242;28;20505;-90
2021/04/20 03:27:46;;;;;;;19.25;11.18;;;5.70;99.90;;;;;;5068668;28;20087;-88
2021/04/20 03:30:16;;;;;;;17.63;11.38;;;5.70;99.90;;;;;;5094752;28;20167;-89
2021/04/20 03:32:50;;;;;;;19.15;11.55;;;5.70;99.90;;;;;;5085256;28;20131;-87
2021/04/20 03:35:23;;;;;;;17.83;11.07;;;5.80;99.90;;;;;;5083654;28;20044;-86
2021/04/20 03:37:56;;;;;;;18.55;11.07;;;5.90;99.90;;;;;;5079300;28;20577;-87
2021/04/20 03:40:25;;;;;;;19.98;12.43;;;5.90;99.90;;;;;;5080187;28;20044;-85
2021/04/20 03:42:56;;;;;;;19.08;11.70;;;6.00;99.90;;;;;;5072355;28;20067;-86
2021/04/20 03:45:28;;;;;;;19.60;11.45;;;6.00;99.90;;;;;;5078428;28;20098;-87
2021/04/20 03:48:09;;;;;;;21.13;12.95;;;6.10;99.90;;;;;;5099520;28;20072;-87
2021/04/20 03:50:39;;;;;;;17.73;11.65;;;6.10;99.70;;;;;;5082315;28;20069;-88
2021/04/20 03:53:10;;;;;;;17.60;11.30;;;6.10;99.70;;;;;;5097185;28;20067;-86
2021/04/20 03:55:39;;;;;;;20.23;12.23;;;6.10;99.80;;;;;;5100320;28;20056;-89
2021/04/20 03:58:06;;;;;;;19.60;12.20;;;6.10;99.70;;;;;;5092197;28;20101;-89
2021/04/20 04:00:35;;;;;;;20.15;11.60;;;6.10;99.60;;;;;;5066114;28;20556;-86
2021/04/20 04:03:06;;;;;;;16.85;10.80;;;6.10;99.70;;;;;;5066148;28;20072;-84
2021/04/20 04:05:37;;;;;;;18.65;10.93;;;6.10;99.70;;;;;;5077254;28;20045;-85
2021/04/20 04:08:07;;;;;;;20.17;12.18;;;6.20;99.80;;;;;;5058110;28;20088;-81
2021/04/20 04:10:35;;;;;;;21.45;11.57;;;6.20;99.70;;;;;;5085260;28;20410;-82
2021/04/20 04:13:06;;;;;;;22.38;12.25;;;6.20;99.50;;;;;;5074113;28;20045;-81
2021/04/20 04:15:35;;;;;;;19.52;11.85;;;6.30;99.50;;;;;;5094479;28;20083;-80
2021/04/20 04:18:05;;;;;;;20.48;12.30;;;6.30;99.10;;;;;;5095687;28;20052;-80
2021/04/20 04:20:32;;;;;;;19.33;11.70;;;6.20;99.10;;;;;;5088057;28;20143;-81
2021/04/20 04:23:03;;;;;;;18.42;11.38;;;6.10;99.30;;;;;;5086304;28;20075;-81
2021/04/20 04:25:34;;;;;;;20.15;11.77;;;6.00;99.50;;;;;;5083165;28;20500;-84
2021/04/20 04:28:03;;;;;;;21.15;12.73;;;6.00;99.70;;;;;;5092193;28;20075;-83
2021/04/20 04:30:30;;;;;;;20.00;12.43;;;6.10;99.60;;;;;;5092410;28;20079;-81
2021/04/20 04:32:58;;;;;;;20.55;12.55;;;6.10;99.50;;;;;;5104153;28;20048;-80
2021/04/20 04:35:26;;;;;;;19.17;12.43;;;6.10;99.40;;;;;;5074462;28;20051;-83
2021/04/20 04:37:52;;;;;;;20.90;12.65;;;6.20;99.10;;;;;;5077927;28;20127;-81
2021/04/20 04:40:21;;;;;;;19.70;12.77;;;6.10;98.90;;;;;;5058915;28;20108;-80
2021/04/20 04:42:48;;;;;;;19.67;12.43;;;6.00;99.20;;;;;;5083873;28;20044;-80
2021/04/20 04:45:17;;;;;;;18.50;11.90;;;5.90;99.50;;;;;;5093857;28;20143;-81
2021/04/20 04:47:44;;;;;;;20.88;12.35;;;6.00;99.40;;;;;;5081093;28;20080;-83
2021/04/20 04:50:12;;;;;;;21.60;12.73;;;5.90;99.40;;;;;;5091474;28;20482;-84
2021/04/20 04:52:41;;;;;;;21.17;12.77;;;5.90;99.30;;;;;;5090227;28;20104;-85
2021/04/20 04:55:09;;;;;;;16.17;10.75;;;5.90;99.30;;;;;;5105226;28;20089;-83
2021/04/20 04:57:37;;;;;;;15.98;10.30;;;5.80;99.30;;;;;;5066696;28;20475;-83
2021/04/20 05:00:07;;;;;;;16.52;10.73;;;5.70;99.40;;;;;;5082462;28;20076;-87
2021/04/20 05:02:35;;;;;;;17.77;10.55;;;5.60;99.60;;;;;;5083048;28;20394;-85
2021/04/20 05:05:08;;;;;;;16.38;10.35;;;5.60;99.70;;;;;;5081143;28;20044;-85
2021/04/20 05:07:35;;;;;;;17.00;10.65;;;5.50;99.90;;;;;;5078649;28;20531;-83
2021/04/20 05:10:03;;;;;;;17.95;10.93;;;5.60;99.90;;;;;;5094051;28;20075;-83
2021/04/20 05:12:32;;;;;;;18.17;11.38;;;5.60;99.90;;;;;;5095525;28;20512;-84
2021/04/20 05:15:06;;;;;;;17.70;10.80;;;5.60;99.90;;;;;;5061850;28;20091;-84
2021/04/20 05:17:34;;;;;;;16.95;11.07;;;5.70;99.90;;;;;;5051935;28;20219;-82
2021/04/20 05:20:01;;;;;;;17.15;11.07;;;5.70;99.90;;;;;;5078773;28;20075;-83
2021/04/20 05:22:28;;;;;;;17.58;10.85;;;5.90;99.90;;;;;;5071632;28;20040;-84
2021/04/20 05:24:55;;;;;;;18.15;11.02;;;5.90;99.80;;;;;;5079865;28;20071;-86
2021/04/20 05:27:22;;;;;;;16.38;10.35;;;6.00;99.90;;;;;;5064083;28;20064;-85
2021/04/20 05:29:48;;;;;;;16.23;11.00;;;6.00;99.90;;;;;;5074447;28;20189;-86
2021/04/20 05:32:15;;;;;;;19.13;12.23;;;6.10;99.90;;;;;;5061247;28;20080;-86
2021/04/20 05:34:43;;;;;;;20.23;12.50;;;6.10;99.90;;;;;;5049829;28;20048;-84
2021/04/20 05:37:10;;;;;;;21.48;12.45;;;6.20;99.70;;;;;;5093114;28;20104;-84
2021/04/20 05:39:36;;;;;;;19.02;12.20;;;6.20;99.60;;;;;;5100199;28;20079;-83
2021/04/20 05:42:03;;;;;;;16.50;11.05;;;6.30;99.50;;;;;;5079215;28;20545;-82
2021/04/20 05:44:32;;;;;;;18.73;11.55;;;6.30;99.20;;;;;;5079306;28;20151;-80
2021/04/20 05:46:59;;;;;;;18.27;11.75;;;6.20;99.10;;;;;;5075668;28;20088;-80
2021/04/20 05:49:26;;;;;;;18.40;11.50;;;6.30;99.10;;;;;;5084159;28;20090;-82
2021/04/20 05:51:55;;;;;;;18.25;11.35;;;6.10;99.10;;;;;;5075689;28;20127;-89
2021/04/20 05:54:22;;;;;;;18.02;11.43;;;6.30;99.20;;;;;;5064867;28;20052;-89
2021/04/20 05:56:49;;;;;;;20.33;12.13;;;6.30;99.20;;;;;;5059123;28;20067;-91
2021/04/20 05:59:17;;;;;;;18.40;11.63;;;6.30;99.20;;;;;;5076977;28;20456;-91
2021/04/20 06:01:46;;;;;;;21.13;12.23;;;6.20;99.10;;;;;;5088226;28;20064;-93
2021/04/20 06:04:15;;;;;;;20.20;11.38;;;6.20;99.40;;;;;;5090854;28;20107;-92
2021/04/20 06:06:43;;;;;;;19.90;12.23;;;6.20;99.60;;;;;;5084004;28;20081;-92
2021/04/20 06:09:14;;;;;;;19.92;12.45;;;6.20;99.70;;;;;;5084564;28;20053;-91
2021/04/20 06:14:45;;;;;;;17.08;11.30;;;6.40;99.80;;;;;;5089621;28;20098;-88
2021/04/20 06:17:14;;;;;;;17.65;11.38;;;6.50;99.70;;;;;;5070619;28;20053;-91
2021/04/20 06:19:41;;;;;;;18.15;11.27;;;6.50;99.50;;;;;;5094184;28;20056;-90
2021/04/20 06:22:13;;;;;;;20.90;12.60;;;6.70;99.40;;;;;;5079881;28;20035;-88
2021/04/20 06:24:41;;;;;;;18.33;11.93;;;6.80;99.30;;;;;;5113046;28;20054;-90
2021/04/20 06:27:09;;;;;;;18.13;11.90;;;6.90;99.20;;;;;;5106482;28;20059;-87
2021/04/20 06:29:36;;;;;;;18.35;11.88;;;6.90;99.10;;;;;;5079817;28;20076;-89
2021/04/20 06:32:04;;;;;;;18.17;11.75;;;7.00;99.00;;;;;;5103824;28;20087;-92
2021/04/20 06:34:32;;;;;;;19.10;12.88;;;7.00;98.80;;;;;;5089305;28;20040;-91
2021/04/20 06:36:59;;;;;;;18.08;11.75;;;7.00;98.70;;;;;;5102858;28;20052;-90
2021/04/20 06:39:26;;;;;;;18.42;12.00;;;7.00;98.60;;;;;;5099450;28;20055;-90
2021/04/20 06:41:57;;;;;;;17.23;11.65;;;7.00;98.90;;;;;;5099779;28;20114;-88
2021/04/20 06:44:30;;;;;;;17.95;11.93;;;7.00;98.50;;;;;;5072526;28;20084;-85
2021/04/20 06:47:04;;;;;;;18.80;12.80;;;6.90;98.60;;;;;;5077262;28;20131;-89
2021/04/20 06:49:40;;;;;;;17.23;11.30;;;6.70;98.70;;;;;;5083069;28;20084;-86
2021/04/20 06:52:15;;;;;;;16.40;10.90;;;6.80;99.10;;;;;;5082526;28;20155;-88
2021/04/20 06:54:49;;;;;;;;;;;6.80;99.30;;;;;;5097391;28;20072;-86
2021/04/20 06:57:18;;;;;;;;;;;6.90;99.30;;;;;;5085130;28;19956;-86
2021/04/20 07:00:00;;;;;;;17.52;12.00;;;7.00;99.30;;;;;;5075186;28;19977;-85
2021/04/20 07:02:39;;;;;;;15.60;10.77;;;7.00;98.90;;;;;;5076862;28;20055;-86
2021/04/20 07:05:11;;;;;;;16.92;11.15;;;6.90;99.20;;;;;;5074743;28;20070;-87
2021/04/20 07:07:58;;;;;;;14.75;10.60;;;7.00;99.60;;;;;;5073944;28;20125;-86
2021/04/20 07:10:32;;;;;;;16.60;11.88;;;7.00;99.70;;;;;;5051422;28;20058;-84
2021/04/20 07:13:04;;;;;;;15.75;10.73;;;7.00;99.80;;;;;;5074860;28;20469;-87
2021/04/20 07:15:32;;;;;;;16.70;11.20;;;7.00;99.90;;;;;;5088622;28;20090;-86
2021/04/20 07:18:30;;;;;;;16.80;11.07;;;7.20;99.90;;;;;;5086343;28;20072;-86
2021/04/20 07:21:14;;;;;;;16.20;11.35;;;7.30;99.90;;;;;;5076003;28;20102;-88
2021/04/20 07:23:56;;;;;;;18.15;12.60;;;7.40;99.90;;;;;;5074818;28;20170;-89
2021/04/20 07:26:54;;;;;;;16.48;11.25;;;7.50;99.50;;;;;;5081919;28;20040;-85
2021/04/20 07:29:55;;;;;;;17.52;11.70;;;7.50;99.60;;;;;;5075981;28;20079;-85
2021/04/20 07:32:32;;;;;;;16.88;12.10;;;7.60;99.90;;;;;;5056150;28;20490;-83
2021/04/20 07:35:12;;;;;;;17.90;12.52;;;7.80;99.90;;;;;;5080235;28;20068;-86
2021/04/20 07:37:45;;;;;;;16.77;11.88;;;7.80;99.40;;;;;;5080688;28;20111;-84
2021/04/20 07:40:32;;;;;;;19.48;12.80;;;7.90;99.40;;;;;;5057753;28;20154;-85
2021/04/20 07:43:24;;;;;;;17.85;11.93;;;8.00;99.70;;;;;;5080857;28;20051;-87
2021/04/20 07:45:57;;;;;;;19.13;12.57;;;8.10;99.80;;;;;;5073703;28;20410;-86
2021/04/20 07:48:38;;;;;;;17.95;12.40;;;8.20;99.80;;;;;;5080239;28;20136;-84
2021/04/20 07:51:09;;;;;;;19.23;13.23;;;8.30;99.70;;;;;;5080644;28;20048;-86
2021/04/20 07:53:44;;;;;;;19.23;13.32;;;8.40;99.80;;;;;;5079179;28;20086;-83
2021/04/20 07:56:21;;;;;;;17.77;12.70;;;8.50;99.60;;;;;;5077981;28;20040;-86
2021/04/20 07:58:52;;;;;;;17.50;12.15;;;8.50;99.50;;;;;;5086022;28;20060;-83
2021/04/20 08:01:42;;;;;;;18.08;12.68;;;8.50;99.50;;;;;;5084604;28;20086;-83
2021/04/20 08:04:27;;;;;;;16.80;12.40;;;8.70;99.50;;;;;;5086396;28;20131;-83
2021/04/20 08:07:02;;;;;;;18.08;12.43;;;8.80;99.10;;;;;;5091239;28;20128;-85
2021/04/20 08:09:34;;;;;;;19.35;13.00;;;8.90;99.10;;;;;;5057042;28;20044;-79
2021/04/20 08:12:06;;;;;;;23.15;14.40;;;8.90;99.00;;;;;;5097336;28;20059;-81
2021/04/20 08:14:44;;;;;;;18.52;13.38;;;9.10;98.80;;;;;;5077976;28;20075;-83
2021/04/20 08:17:22;;;;;;;21.33;13.65;;;9.10;99.10;;;;;;5086834;28;20065;-83
2021/04/20 08:19:56;;;;;;;20.98;14.88;;;9.20;99.00;;;;;;5097594;28;20451;-84
2021/04/20 08:22:22;;;;;;;18.17;13.15;;;9.30;98.90;;;;;;5083193;28;20044;-83
2021/04/20 08:24:56;;;;;;;20.70;14.63;;;9.30;98.90;;;;;;5089008;28;20068;-82
2021/04/20 08:27:32;;;;;;;22.52;15.63;;;9.40;98.80;;;;;;5089442;28;20113;-80
2021/04/20 08:30:07;;;;;;;22.27;15.73;;;9.50;98.50;;;;;;5093330;28;20052;-82
2021/04/20 08:32:34;;;;;;;;;;;9.50;98.50;;;;;;5086159;28;20093;-81
2021/04/20 08:35:09;;;;;;;22.63;15.13;;;9.50;98.80;;;;;;5078779;28;20007;-81
2021/04/20 08:38:07;;;;;;;22.45;15.80;;;9.60;98.90;;;;;;5083034;28;20050;-81
2021/04/20 08:40:44;;;;;;;24.00;15.82;;;9.70;99.00;;;;;;5082580;28;20049;-79
2021/04/20 08:43:26;;;;;;;22.85;15.23;;;9.80;98.80;;;;;;5079710;28;20561;-82
2021/04/20 08:45:59;;;;;;;23.25;15.52;;;9.80;98.60;;;;;;5094885;28;20054;-84
2021/04/20 08:48:39;;;;;;;22.63;15.45;;;9.90;98.60;;;;;;5086645;28;20075;-82
2021/04/20 08:51:13;;;;;;;22.65;15.93;;;9.90;98.60;;;;;;5104210;28;20044;-84
2021/04/20 08:54:00;;;;;;;23.65;16.23;;;10.00;98.60;;;;;;5103049;28;20255;-84
2021/04/20 08:56:34;;;;;;;22.48;15.60;;;10.00;98.20;;;;;;5086962;28;20552;-82
2021/04/20 08:59:17;;;;;;;21.67;15.20;;;10.10;98.30;;;;;;5077357;28;20049;-81
2021/04/20 09:02:08;;;;;;;23.97;14.93;;;10.20;98.10;;;;;;5064491;28;20071;-86
2021/04/20 09:05:06;;;;;;;23.98;16.17;;;10.30;98.00;;;;;;5090881;28;20071;-87
2021/04/20 09:07:42;;;;;;;22.48;15.70;;;10.30;98.00;;;;;;5063923;28;20090;-85
2021/04/20 09:10:16;;;;;;;23.67;14.88;;;10.40;97.50;;;;;;5066336;28;20041;-85
2021/04/20 09:12:46;;;;;;;24.48;16.90;;;10.50;97.60;;;;;;5080607;28;20049;-83
2021/04/20 09:15:17;;;;;;;21.80;14.23;;;10.60;96.90;;;;;;5069692;28;20092;-86
2021/04/20 09:17:49;;;;;;;19.35;13.32;;;10.60;96.90;;;;;;5078347;28;20083;-87
2021/04/20 09:20:26;;;;;;;17.45;11.73;;;10.70;96.90;;;;;;5084477;28;20504;-87
2021/04/20 09:22:58;;;;;;;14.95;10.25;;;10.80;96.50;;;;;;5088023;28;20041;-83
2021/04/20 09:25:29;;;;;;;17.55;12.05;;;10.90;96.00;;;;;;5081292;28;20449;-82
2021/04/20 09:28:08;;;;;;;17.80;12.35;;;10.90;95.90;;;;;;5070825;28;20083;-82
2021/04/20 09:30:43;;;;;;;17.05;11.68;;;11.00;95.90;;;;;;5056192;28;20144;-82
2021/04/20 09:33:18;;;;;;;15.82;11.00;;;11.10;95.30;;;;;;5069370;28;20077;-84
2021/04/20 09:35:47;;;;;;;17.92;11.95;;;11.10;95.10;;;;;;5057713;28;20140;-83
2021/04/20 09:38:15;;;;;;;15.82;10.32;;;11.30;94.50;;;;;;5057275;28;20087;-82
2021/04/20 09:40:46;;;;;;;15.75;10.68;;;11.30;94.50;;;;;;5056706;28;20088;-82
2021/04/20 09:43:27;;;;;;;14.85;10.57;;;11.40;94.30;;;;;;5056389;28;20120;-84
2021/04/20 09:46:04;;;;;;;14.27;9.60;;;11.40;94.00;;;;;;5059921;28;20041;-85
2021/04/20 09:48:43;;;;;;;15.18;9.63;;;11.50;93.50;;;;;;5056335;28;20083;-84
2021/04/20 09:51:15;;;;;;;21.08;12.60;;;11.50;93.10;;;;;;5060962;28;20052;-84
2021/04/20 09:53:56;;;;;;;16.05;10.40;;;11.70;92.90;;;;;;5077698;28;20052;-86
2021/04/20 09:56:30;;;;;;;12.05;7.68;;;11.70;92.50;;;;;;5075470;28;20079;-83
2021/04/20 09:58:57;;;;;;;13.67;9.17;;;11.70;92.30;;;;;;5054797;28;20049;-82
2021/04/20 10:01:42;;;;;;;12.60;7.78;;;11.80;91.40;;;;;;5063309;28;20088;-85
2021/04/20 10:04:11;;;;;;;10.00;6.75;;;11.90;91.40;;;;;;5066395;28;20091;-83
2021/04/20 10:07:10;;;;;;;11.90;6.30;;;12.00;90.30;;;;;;5070583;28;20052;-84
2021/04/20 10:09:47;;;;;;;6.78;4.78;;;12.00;90.30;;;;;;5076088;28;20486;-83
2021/04/20 10:12:29;;;;;;;7.57;4.55;;;12.00;89.60;;;;;;5081984;28;21558;-87
2021/04/20 10:15:11;;;;;;;10.30;6.05;;;12.10;89.40;;;;;;5088613;28;20048;-91
2021/04/20 10:17:46;;;;;;;10.75;6.22;;;12.20;88.40;;;;;;5109477;28;20066;-92
2021/04/20 10:20:21;;;;;;;7.95;5.57;;;12.30;88.20;;;;;;5108927;28;20040;-89
2021/04/20 10:22:58;;;;;;;9.90;6.28;;;12.40;88.10;;;;;;5089321;28;20051;-91
2021/04/20 10:25:36;;;;;;;10.40;6.60;;;12.50;87.60;;;;;;5089133;28;20051;-91
2021/04/20 10:28:15;;;;;;;8.95;5.25;;;12.60;86.80;;;;;;5092287;28;20086;-78
2021/04/20 10:30:45;;;;;;;9.80;6.20;;;12.70;87.80;;;;;;5082719;28;20048;-83
2021/04/20 10:33:12;;;;;;;10.73;7.30;;;12.90;86.10;;;;;;5089879;28;20557;-86
2021/04/20 10:35:41;;;;;;;9.65;5.57;;;13.00;84.30;;;;;;5094023;28;20112;-84
2021/04/20 10:38:15;;;;;;;10.35;7.30;;;13.10;84.60;;;;;;5096537;28;20087;-91
2021/04/20 10:40:46;;;;;;;9.63;6.40;;;13.10;84.60;;;;;;5093009;28;20044;-88
2021/04/20 10:44:11;;;;;;;9.40;6.60;;;13.20;84.80;;;;;;5099038;28;20051;-87
2021/04/20 10:46:39;;;;;;;9.55;6.70;;;13.40;83.80;;;;;;5102672;28;20482;-86
2021/04/20 10:49:08;;;;;;;11.07;7.70;;;13.50;83.30;;;;;;5103556;28;20357;-86
2021/04/20 10:51:37;;;;;;;10.18;7.05;;;13.50;83.60;;;;;;5050191;28;20102;-87
2021/04/20 10:54:08;;;;;;;10.18;6.00;;;13.60;83.50;;;;;;5058782;28;20045;-82
2021/04/20 10:56:36;;;;;;;10.05;6.57;;;13.60;83.20;;;;;;5053907;28;20080;-82
2021/04/20 10:59:08;;;;;;;10.95;7.25;;;13.70;82.00;;;;;;5055323;28;20111;-84
2021/04/20 11:01:41;;;;;;;9.75;6.20;;;13.90;79.70;;;;;;5070700;28;20451;-82
2021/04/20 11:04:09;;;;;;;8.50;6.00;;;13.90;79.50;;;;;;5059177;28;20465;-80
2021/04/20 11:07:18;;;;;;;9.30;6.28;;;13.90;79.50;;;;;;5092441;28;20135;-81
2021/04/20 11:09:47;;;;;;;9.27;6.18;;;14.00;79.80;;;;;;5061020;28;20051;-83
2021/04/20 11:12:17;;;;;;;9.02;6.10;;;14.00;79.10;;;;;;5072802;28;20060;-83
2021/04/20 11:14:46;;;;;;;10.48;7.30;;;14.20;78.70;;;;;;5070567;28;20060;-82
2021/04/20 11:17:22;;;;;;;14.10;8.43;;;14.30;78.90;;;;;;5071092;28;20139;-82
2021/04/20 11:20:10;;;;;;;10.32;6.85;;;14.40;79.70;;;;;;5071538;28;20139;-83
2021/04/20 11:22:42;;;;;;;9.95;6.00;;;14.60;79.60;;;;;;5084981;28;20075;-85
2021/04/20 11:25:24;;;;;;;8.48;5.80;;;14.70;78.20;;;;;;5081839;28;20566;-84
2021/04/20 11:27:57;;;;;;;9.18;6.35;;;14.80;78.20;;;;;;5072484;28;20490;-89
2021/04/20 11:30:32;;;;;;;9.82;6.28;;;14.90;77.60;;;;;;5075825;28;20103;-89
2021/04/20 11:33:03;;;;;;;8.82;6.18;;;15.00;76.50;;;;;;5074878;28;20494;-89
2021/04/20 11:35:30;;;;;;;11.43;7.00;;;15.00;75.70;;;;;;5072598;28;20076;-88
2021/04/20 11:38:01;;;;;;;10.13;6.50;;;15.20;75.00;;;;;;5076635;28;20493;-90
2021/04/20 11:40:38;;;;;;;8.55;6.28;;;15.30;74.20;;;;;;5070808;28;20468;-89
2021/04/20 11:43:05;;;;;;;8.57;6.05;;;15.30;75.00;;;;;;5069031;28;20398;-87
2021/04/20 11:45:39;;;;;;;10.18;6.95;;;15.40;74.30;;;;;;5081033;28;20064;-88
2021/04/20 11:48:11;;;;;;;12.63;8.57;;;15.50;73.40;;;;;;5083060;28;20056;-90
2021/04/20 11:50:43;;;;;;;10.70;7.15;;;15.60;71.60;;;;;;5102744;28;20051;-89
2021/04/20 11:53:11;;;;;;;10.85;7.43;;;15.70;72.60;;;;;;5105264;28;20052;-89
2021/04/20 11:55:43;;;;;;;10.60;7.35;;;15.70;72.40;;;;;;5103010;28;20070;-90
2021/04/20 11:58:14;;;;;;;9.93;6.82;;;15.80;73.00;;;;;;5102815;28;20048;-88
2021/04/20 12:00:43;;;;;;;10.88;7.72;;;15.90;73.00;;;;;;5087956;28;20057;-88
2021/04/20 12:03:16;;;;;;;11.13;7.38;;;16.10;71.80;;;;;;5064259;28;20558;-88
2021/04/20 12:05:47;;;;;;;10.35;7.00;;;16.20;70.90;;;;;;5080618;28;20049;-87
2021/04/20 12:08:24;;;;;;;10.60;7.10;;;16.30;69.90;;;;;;5088254;28;20052;-87
2021/04/20 12:10:53;;;;;;;10.85;7.28;;;16.40;69.40;;;;;;5100443;28;20040;-88
2021/04/20 12:13:27;;;;;;;9.63;6.93;;;16.40;69.30;;;;;;5073447;28;20080;-89
2021/04/20 12:15:58;;;;;;;10.65;7.63;;;16.50;69.20;;;;;;5076186;28;20127;-85
2021/04/20 12:18:26;;;;;;;11.43;7.72;;;16.60;66.80;;;;;;5080641;28;20072;-86
2021/04/20 12:20:54;;;;;;;11.93;8.38;;;16.70;67.20;;;;;;5073452;28;20135;-84
2021/04/20 12:23:23;;;;;;;10.75;7.70;;;16.80;66.10;;;;;;5090008;28;20059;-85
2021/04/20 12:25:52;;;;;;;11.38;7.90;;;16.90;64.40;;;;;;5091941;28;20455;-86
2021/04/20 12:28:20;;;;;;;11.70;7.55;;;17.00;63.60;;;;;;5091889;28;20544;-86
2021/04/20 12:30:48;;;;;;;11.05;7.80;;;17.00;63.20;;;;;;5073658;28;20556;-86
2021/04/20 12:33:25;;;;;;;9.70;6.60;;;17.10;63.60;;;;;;5077632;28;20040;-85
2021/04/20 12:35:52;;;;;;;9.40;6.18;;;17.20;64.50;;;;;;5104115;28;20047;-85
2021/04/20 12:38:22;;;;;;;11.43;7.93;;;17.30;64.80;;;;;;5090523;28;20056;-86
2021/04/20 12:40:57;;;;;;;9.63;6.50;;;17.40;63.30;;;;;;5084031;28;20165;-83
2021/04/20 12:43:28;;;;;;;9.25;6.50;;;17.40;62.60;;;;;;5094631;28;20466;-82
2021/04/20 12:46:06;;;;;;;9.20;6.57;;;17.50;62.90;;;;;;5075385;28;20135;-83
2021/04/20 12:48:33;;;;;;;8.77;5.65;;;17.60;61.50;;;;;;5094711;28;20588;-83
2021/04/20 12:51:03;;;;;;;11.45;8.02;;;17.70;61.30;;;;;;5095323;28;20049;-84
2021/04/20 12:53:30;;;;;;;10.27;7.07;;;18.00;58.10;;;;;;5084493;28;20494;-83
2021/04/20 12:55:59;;;;;;;8.85;6.45;;;18.20;58.20;;;;;;5074736;28;20147;-83
2021/04/20 12:58:31;;;;;;;9.77;6.80;;;18.30;57.10;;;;;;5092451;28;20588;-83
2021/04/20 13:01:02;;;;;;;9.02;6.47;;;18.40;57.50;;;;;;5094868;28;20090;-85
2021/04/20 13:03:30;;;;;;;8.77;5.85;;;18.40;57.10;;;;;;5095491;28;20533;-83
2021/04/20 13:05:58;;;;;;;10.85;7.43;;;18.60;57.00;;;;;;5077703;28;20084;-85